sensor_id;sensor_type;location;lat;lon;timestamp;P1;durP1;ratioP1;P2;durP2;ratioP2
54875;SDS011;40764;48.472;8.166;2022-09-03T00:02:27;4.72;;;3.63;;
54875;SDS011;40764;48.472;8.166;2022-09-03T00:08:36;3.95;;;3.42;;
54875;SDS011;40764;48.472;8.166;2022-09-03T00:15:03;6.68;;;4.00;;
54875;SDS011;40764;48.472;8.166;2022-09-03T00:21:08;6.63;;;3.80;;
54875;SDS011;40764;48.472;8.166;2022-09-03T00:27:16;6.57;;;3.50;;
54875;SDS011;40764;48.472;8.166;2022-09-03T00:33:23;8.15;;;4.03;;
54875;SDS011;40764;48.472;8.166;2022-09-03T00:39:30;11.52;;;3.97;;
54875;SDS011;40764;48.472;8.166;2022-09-03T00:45:47;6.13;;;4.07;;
54875;SDS011;40764;48.472;8.166;2022-09-03T01:11:56;10.82;;;4.38;;
54875;SDS011;40764;48.472;8.166;2022-09-03T01:24:27;9.32;;;4.40;;
54875;SDS011;40764;48.472;8.166;2022-09-03T01:30:32;8.60;;;4.07;;
54875;SDS011;40764;48.472;8.166;2022-09-03T01:43:42;5.80;;;4.07;;
54875;SDS011;40764;48.472;8.166;2022-09-03T01:50:36;16.83;;;4.32;;
54875;SDS011;40764;48.472;8.166;2022-09-03T02:02:46;16.42;;;9.43;;
54875;SDS011;40764;48.472;8.166;2022-09-03T02:08:48;11.00;;;6.80;;
54875;SDS011;40764;48.472;8.166;2022-09-03T02:14:48;9.73;;;5.28;;
54875;SDS011;40764;48.472;8.166;2022-09-03T02:20:48;9.67;;;5.03;;
54875;SDS011;40764;48.472;8.166;2022-09-03T02:26:51;7.97;;;5.40;;
54875;SDS011;40764;48.472;8.166;2022-09-03T02:32:52;9.27;;;5.60;;
54875;SDS011;40764;48.472;8.166;2022-09-03T02:38:53;7.87;;;5.37;;
54875;SDS011;40764;48.472;8.166;2022-09-03T02:44:58;9.10;;;5.50;;
54875;SDS011;40764;48.472;8.166;2022-09-03T02:51:04;8.27;;;5.00;;
54875;SDS011;40764;48.472;8.166;2022-09-03T02:57:08;6.53;;;4.73;;
54875;SDS011;40764;48.472;8.166;2022-09-03T03:03:10;7.50;;;5.53;;
54875;SDS011;40764;48.472;8.166;2022-09-03T03:09:11;10.18;;;5.28;;
54875;SDS011;40764;48.472;8.166;2022-09-03T03:15:11;7.03;;;4.80;;
54875;SDS011;40764;48.472;8.166;2022-09-03T03:21:15;6.68;;;5.10;;
54875;SDS011;40764;48.472;8.166;2022-09-03T03:27:17;7.57;;;5.25;;
54875;SDS011;40764;48.472;8.166;2022-09-03T03:33:17;9.27;;;5.40;;
54875;SDS011;40764;48.472;8.166;2022-09-03T03:39:18;15.30;;;6.43;;
54875;SDS011;40764;48.472;8.166;2022-09-03T03:45:19;8.07;;;5.50;;
54875;SDS011;40764;48.472;8.166;2022-09-03T03:51:19;8.60;;;5.23;;
54875;SDS011;40764;48.472;8.166;2022-09-03T03:57:23;11.63;;;6.43;;
54875;SDS011;40764;48.472;8.166;2022-09-03T04:03:25;7.90;;;5.72;;
54875;SDS011;40764;48.472;8.166;2022-09-03T04:09:26;15.88;;;6.90;;
54875;SDS011;40764;48.472;8.166;2022-09-03T04:15:26;11.60;;;6.17;;
54875;SDS011;40764;48.472;8.166;2022-09-03T04:21:28;14.83;;;8.57;;
54875;SDS011;40764;48.472;8.166;2022-09-03T04:27:29;20.88;;;10.50;;
54875;SDS011;40764;48.472;8.166;2022-09-03T04:33:30;17.27;;;8.83;;
54875;SDS011;40764;48.472;8.166;2022-09-03T04:39:31;16.90;;;7.85;;
54875;SDS011;40764;48.472;8.166;2022-09-03T04:45:32;14.68;;;9.07;;
54875;SDS011;40764;48.472;8.166;2022-09-03T04:51:32;15.95;;;9.68;;
54875;SDS011;40764;48.472;8.166;2022-09-03T04:57:32;17.05;;;8.63;;
54875;SDS011;40764;48.472;8.166;2022-09-03T05:03:36;14.07;;;7.32;;
54875;SDS011;40764;48.472;8.166;2022-09-03T05:09:37;12.07;;;7.83;;
54875;SDS011;40764;48.472;8.166;2022-09-03T05:15:37;18.17;;;8.93;;
54875;SDS011;40764;48.472;8.166;2022-09-03T05:21:38;15.38;;;8.88;;
54875;SDS011;40764;48.472;8.166;2022-09-03T05:27:38;18.57;;;10.10;;
54875;SDS011;40764;48.472;8.166;2022-09-03T05:33:40;13.03;;;8.10;;
54875;SDS011;40764;48.472;8.166;2022-09-03T05:39:41;13.35;;;9.23;;
54875;SDS011;40764;48.472;8.166;2022-09-03T05:45:42;9.63;;;7.10;;
54875;SDS011;40764;48.472;8.166;2022-09-03T05:51:44;8.43;;;7.27;;
54875;SDS011;40764;48.472;8.166;2022-09-03T05:57:50;12.13;;;8.10;;
54875;SDS011;40764;48.472;8.166;2022-09-03T06:03:55;13.77;;;7.53;;
54875;SDS011;40764;48.472;8.166;2022-09-03T06:09:56;15.32;;;8.38;;
54875;SDS011;40764;48.472;8.166;2022-09-03T06:16:00;14.17;;;8.00;;
54875;SDS011;40764;48.472;8.166;2022-09-03T06:22:05;11.90;;;6.47;;
54875;SDS011;40764;48.472;8.166;2022-09-03T06:28:12;11.18;;;6.88;;
54875;SDS011;40764;48.472;8.166;2022-09-03T06:34:13;8.85;;;6.32;;
54875;SDS011;40764;48.472;8.166;2022-09-03T06:40:15;6.97;;;5.80;;
54875;SDS011;40764;48.472;8.166;2022-09-03T06:46:22;10.07;;;6.80;;
54875;SDS011;40764;48.472;8.166;2022-09-03T06:52:23;11.63;;;6.88;;
54875;SDS011;40764;48.472;8.166;2022-09-03T06:58:23;6.78;;;4.95;;
54875;SDS011;40764;48.472;8.166;2022-09-03T07:04:27;5.82;;;4.80;;
54875;SDS011;40764;48.472;8.166;2022-09-03T07:10:27;10.57;;;6.30;;
54875;SDS011;40764;48.472;8.166;2022-09-03T07:16:32;8.65;;;5.50;;
54875;SDS011;40764;48.472;8.166;2022-09-03T07:22:34;12.05;;;5.95;;
54875;SDS011;40764;48.472;8.166;2022-09-03T07:28:35;6.87;;;4.90;;
54875;SDS011;40764;48.472;8.166;2022-09-03T07:34:37;7.72;;;4.82;;
54875;SDS011;40764;48.472;8.166;2022-09-03T07:40:37;10.10;;;5.38;;
54875;SDS011;40764;48.472;8.166;2022-09-03T07:46:38;5.40;;;4.20;;
54875;SDS011;40764;48.472;8.166;2022-09-03T07:52:39;27.70;;;9.20;;
54875;SDS011;40764;48.472;8.166;2022-09-03T07:58:39;18.48;;;7.10;;
54875;SDS011;40764;48.472;8.166;2022-09-03T08:04:41;6.25;;;5.07;;
54875;SDS011;40764;48.472;8.166;2022-09-03T08:10:42;17.55;;;6.85;;
54875;SDS011;40764;48.472;8.166;2022-09-03T08:16:44;10.47;;;7.37;;
54875;SDS011;40764;48.472;8.166;2022-09-03T08:22:46;10.50;;;6.10;;
54875;SDS011;40764;48.472;8.166;2022-09-03T08:28:47;15.30;;;8.37;;
54875;SDS011;40764;48.472;8.166;2022-09-03T08:34:48;10.73;;;6.17;;
54875;SDS011;40764;48.472;8.166;2022-09-03T08:40:49;9.55;;;5.53;;
54875;SDS011;40764;48.472;8.166;2022-09-03T08:47:10;12.48;;;6.10;;
54875;SDS011;40764;48.472;8.166;2022-09-03T08:53:20;8.23;;;6.07;;
54875;SDS011;40764;48.472;8.166;2022-09-03T08:59:29;6.47;;;4.53;;
54875;SDS011;40764;48.472;8.166;2022-09-03T09:05:48;6.40;;;3.80;;
54875;SDS011;40764;48.472;8.166;2022-09-03T09:18:05;4.70;;;3.45;;
54875;SDS011;40764;48.472;8.166;2022-09-03T09:24:10;8.52;;;3.65;;
54875;SDS011;40764;48.472;8.166;2022-09-03T09:30:20;4.40;;;3.33;;
54875;SDS011;40764;48.472;8.166;2022-09-03T09:36:21;6.97;;;3.87;;
54875;SDS011;40764;48.472;8.166;2022-09-03T09:42:22;4.87;;;3.47;;
54875;SDS011;40764;48.472;8.166;2022-09-03T09:54:30;4.68;;;3.58;;
54875;SDS011;40764;48.472;8.166;2022-09-03T10:00:30;5.43;;;3.47;;
54875;SDS011;40764;48.472;8.166;2022-09-03T10:06:33;5.75;;;4.05;;
54875;SDS011;40764;48.472;8.166;2022-09-03T10:19:08;6.70;;;4.80;;
54875;SDS011;40764;48.472;8.166;2022-09-03T10:25:25;5.13;;;3.30;;
54875;SDS011;40764;48.472;8.166;2022-09-03T10:37:46;7.15;;;3.65;;
54875;SDS011;40764;48.472;8.166;2022-09-03T10:50:19;4.40;;;3.22;;
54875;SDS011;40764;48.472;8.166;2022-09-03T11:09:21;5.53;;;3.72;;
54875;SDS011;40764;48.472;8.166;2022-09-03T11:21:39;6.78;;;3.95;;
54875;SDS011;40764;48.472;8.166;2022-09-03T11:34:15;8.93;;;1.60;;
54875;SDS011;40764;48.472;8.166;2022-09-03T11:40:37;7.40;;;1.92;;
54875;SDS011;40764;48.472;8.166;2022-09-03T11:46:39;4.28;;;1.58;;
54875;SDS011;40764;48.472;8.166;2022-09-03T11:52:40;2.97;;;1.63;;
54875;SDS011;40764;48.472;8.166;2022-09-03T11:58:40;8.07;;;1.92;;
54875;SDS011;40764;48.472;8.166;2022-09-03T12:17:12;2.92;;;2.10;;
54875;SDS011;40764;48.472;8.166;2022-09-03T12:29:49;2.03;;;1.42;;
54875;SDS011;40764;48.472;8.166;2022-09-03T12:35:59;1.80;;;1.40;;
54875;SDS011;40764;48.472;8.166;2022-09-03T12:42:01;3.42;;;1.60;;
54875;SDS011;40764;48.472;8.166;2022-09-03T12:48:11;3.22;;;1.55;;
54875;SDS011;40764;48.472;8.166;2022-09-03T12:54:15;3.67;;;1.45;;
54875;SDS011;40764;48.472;8.166;2022-09-03T13:00:16;0.90;;;0.90;;
54875;SDS011;40764;48.472;8.166;2022-09-03T13:06:20;2.35;;;1.10;;
54875;SDS011;40764;48.472;8.166;2022-09-03T13:12:28;2.13;;;1.20;;
54875;SDS011;40764;48.472;8.166;2022-09-03T13:31:30;2.35;;;1.20;;
54875;SDS011;40764;48.472;8.166;2022-09-03T13:44:00;1.52;;;0.95;;
54875;SDS011;40764;48.472;8.166;2022-09-03T13:50:15;3.63;;;1.10;;
54875;SDS011;40764;48.472;8.166;2022-09-03T14:16:04;21.85;;;6.15;;
54875;SDS011;40764;48.472;8.166;2022-09-03T14:22:14;7.70;;;3.55;;
54875;SDS011;40764;48.472;8.166;2022-09-03T14:28:28;6.28;;;1.75;;
54875;SDS011;40764;48.472;8.166;2022-09-03T14:47:17;2.83;;;0.98;;
54875;SDS011;40764;48.472;8.166;2022-09-03T14:53:28;0.98;;;0.98;;
54875;SDS011;40764;48.472;8.166;2022-09-03T15:19:10;2.33;;;0.90;;
54875;SDS011;40764;48.472;8.166;2022-09-03T15:31:44;3.55;;;1.00;;
54875;SDS011;40764;48.472;8.166;2022-09-03T15:38:24;2.10;;;1.10;;
54875;SDS011;40764;48.472;8.166;2022-09-03T15:50:54;1.77;;;1.17;;
54875;SDS011;40764;48.472;8.166;2022-09-03T15:57:16;2.17;;;1.05;;
54875;SDS011;40764;48.472;8.166;2022-09-03T16:16:25;2.67;;;1.47;;
54875;SDS011;40764;48.472;8.166;2022-09-03T16:22:31;2.10;;;0.90;;
54875;SDS011;40764;48.472;8.166;2022-09-03T16:28:45;2.90;;;0.90;;
54875;SDS011;40764;48.472;8.166;2022-09-03T16:35:02;5.50;;;1.60;;
54875;SDS011;40764;48.472;8.166;2022-09-03T16:41:23;3.65;;;2.03;;
54875;SDS011;40764;48.472;8.166;2022-09-03T16:47:43;1.98;;;1.00;;
54875;SDS011;40764;48.472;8.166;2022-09-03T17:01:07;2.25;;;1.42;;
54875;SDS011;40764;48.472;8.166;2022-09-03T17:52:49;4.32;;;2.30;;
54875;SDS011;40764;48.472;8.166;2022-09-03T17:59:01;4.40;;;1.70;;
54875;SDS011;40764;48.472;8.166;2022-09-03T18:17:50;3.42;;;1.90;;
54875;SDS011;40764;48.472;8.166;2022-09-03T18:24:05;2.05;;;1.77;;
54875;SDS011;40764;48.472;8.166;2022-09-03T18:30:44;4.47;;;2.10;;
54875;SDS011;40764;48.472;8.166;2022-09-03T18:43:50;3.15;;;1.85;;
54875;SDS011;40764;48.472;8.166;2022-09-03T18:50:32;4.13;;;1.98;;
54875;SDS011;40764;48.472;8.166;2022-09-03T18:57:24;2.67;;;2.10;;
54875;SDS011;40764;48.472;8.166;2022-09-03T19:04:01;3.50;;;1.88;;
54875;SDS011;40764;48.472;8.166;2022-09-03T19:10:31;3.25;;;2.20;;
54875;SDS011;40764;48.472;8.166;2022-09-03T19:17:02;7.03;;;2.97;;
54875;SDS011;40764;48.472;8.166;2022-09-03T19:23:29;4.47;;;2.38;;
54875;SDS011;40764;48.472;8.166;2022-09-03T19:49:35;2.88;;;2.10;;
54875;SDS011;40764;48.472;8.166;2022-09-03T19:56:36;5.25;;;2.40;;
54875;SDS011;40764;48.472;8.166;2022-09-03T20:02:48;9.20;;;2.67;;
54875;SDS011;40764;48.472;8.166;2022-09-03T20:09:08;4.28;;;3.10;;
54875;SDS011;40764;48.472;8.166;2022-09-03T20:35:12;7.20;;;2.80;;
54875;SDS011;40764;48.472;8.166;2022-09-03T20:41:53;7.88;;;2.47;;
54875;SDS011;40764;48.472;8.166;2022-09-03T20:48:03;5.03;;;2.88;;
54875;SDS011;40764;48.472;8.166;2022-09-03T20:54:16;7.55;;;2.72;;
54875;SDS011;40764;48.472;8.166;2022-09-03T21:00:20;8.52;;;2.60;;
54875;SDS011;40764;48.472;8.166;2022-09-03T21:12:59;8.70;;;3.07;;
54875;SDS011;40764;48.472;8.166;2022-09-03T21:25:39;10.25;;;4.15;;
54875;SDS011;40764;48.472;8.166;2022-09-03T21:38:17;5.38;;;3.72;;
54875;SDS011;40764;48.472;8.166;2022-09-03T21:44:25;9.50;;;3.85;;
54875;SDS011;40764;48.472;8.166;2022-09-03T21:57:19;7.57;;;4.00;;
54875;SDS011;40764;48.472;8.166;2022-09-03T22:03:46;26.80;;;4.85;;
54875;SDS011;40764;48.472;8.166;2022-09-03T22:16:26;10.23;;;4.78;;
54875;SDS011;40764;48.472;8.166;2022-09-03T22:22:37;15.60;;;4.90;;
54875;SDS011;40764;48.472;8.166;2022-09-03T22:29:27;7.43;;;4.15;;
54875;SDS011;40764;48.472;8.166;2022-09-03T22:42:27;7.90;;;4.13;;
54875;SDS011;40764;48.472;8.166;2022-09-03T22:48:39;14.70;;;4.55;;
54875;SDS011;40764;48.472;8.166;2022-09-03T23:07:32;6.72;;;4.07;;
54875;SDS011;40764;48.472;8.166;2022-09-03T23:13:38;10.63;;;4.82;;
54875;SDS011;40764;48.472;8.166;2022-09-03T23:19:42;6.13;;;3.90;;
54875;SDS011;40764;48.472;8.166;2022-09-03T23:25:53;7.10;;;4.53;;
54875;SDS011;40764;48.472;8.166;2022-09-03T23:32:12;6.57;;;3.83;;
54875;SDS011;40764;48.472;8.166;2022-09-03T23:38:20;7.00;;;4.57;;
54875;SDS011;40764;48.472;8.166;2022-09-03T23:44:58;9.98;;;3.95;;
54875;SDS011;40764;48.472;8.166;2022-09-03T23:51:21;13.23;;;4.22;;
54875;SDS011;40764;48.472;8.166;2022-09-03T23:57:38;8.90;;;4.25;;
